Time;durP1;ratioP1;P1;durP2;ratioP2;P2;SDS_P1;SDS_P2;PMS_P1;PMS_P2;Temp;Humidity;BMP_temperature;BMP_pressure;BME280_temperature;BME280_humidity;BME280_pressure;Samples;Min_cycle;Max_cycle;Signal;HPM_P1;HPM_P2
2022/08/16 00:01:48;;;;;;;8.45;7.55;;;;;;;15.45;100.00;95894.59;10523622;28;20336;-77
2022/08/16 00:06:48;;;;;;;8.77;7.50;;;;;;;15.41;100.00;95892.59;10541340;28;20307;-76
2022/08/16 00:11:49;;;;;;;11.00;7.63;;;;;;;15.52;100.00;95897.22;10541729;28;20199;-77
2022/08/16 00:16:50;;;;;;;8.00;6.68;;;;;;;15.52;100.00;95878.72;10540881;28;20692;-77
2022/08/16 00:21:51;;;;;;;11.32;7.68;;;;;;;15.42;100.00;95884.47;10522981;28;20243;-77
2022/08/16 00:26:52;;;;;;;9.45;6.65;;;;;;;15.46;100.00;95893.56;10540640;28;20217;-77
2022/08/16 00:31:52;;;;;;;13.95;6.88;;;;;;;15.45;100.00;95891.13;10540664;28;20194;-78
2022/08/16 00:36:52;;;;;;;7.97;6.65;;;;;;;15.42;100.00;95887.09;10540530;28;20306;-77
2022/08/16 00:41:53;;;;;;;10.50;7.10;;;;;;;15.32;100.00;95879.59;10521738;28;20186;-77
2022/08/16 00:46:57;;;;;;;7.18;6.32;;;;;;;15.36;100.00;95890.56;10540481;28;20272;-77
2022/08/16 00:51:58;;;;;;;9.98;7.72;;;;;;;15.22;100.00;95886.31;10521764;28;20273;-77
2022/08/16 00:57:01;;;;;;;7.38;6.68;;;;;;;15.31;100.00;95885.91;10538744;28;20309;-77
2022/08/16 01:02:06;;;;;;;8.73;7.22;;;;;;;15.32;100.00;95895.44;10520070;28;20673;-77
2022/08/16 01:07:08;;;;;;;8.23;6.53;;;;;;;15.36;100.00;95895.00;10521160;28;20673;-77
2022/08/16 01:12:09;;;;;;;8.70;6.97;;;;;;;15.33;100.00;95898.91;10503936;28;20187;-77
2022/08/16 01:17:11;;;;;;;8.95;7.18;;;;;;;15.26;100.00;95903.38;10504151;28;20187;-77
2022/08/16 01:22:31;;;;;;;8.90;8.00;;;;;;;15.13;100.00;95906.81;10520183;28;20181;-77
2022/08/16 01:27:36;;;;;;;13.60;8.13;;;;;;;15.20;100.00;95909.47;10503493;28;20291;-77
2022/08/16 01:32:41;;;;;;;12.25;7.70;;;;;;;15.22;100.00;95905.63;10503339;28;20226;-78
2022/08/16 01:37:46;;;;;;;11.43;7.38;;;;;;;15.23;100.00;95909.06;10519935;28;20226;-77
2022/08/16 01:42:47;;;;;;;8.60;7.65;;;;;;;15.24;100.00;95906.22;10503227;28;20645;-77
2022/08/16 01:47:50;;;;;;;9.38;7.93;;;;;;;15.24;100.00;95903.56;10502866;28;20309;-77
2022/08/16 01:52:50;;;;;;;13.43;8.88;;;;;;;15.18;100.00;95909.69;10537371;28;20215;-77
2022/08/16 01:58:01;;;;;;;10.63;9.45;;;;;;;15.04;100.00;95915.97;10536899;28;20179;-77
2022/08/16 02:03:01;;;;;;;9.93;8.82;;;;;;;15.01;100.00;95917.19;10537012;28;20191;-78
2022/08/16 02:08:03;;;;;;;14.02;9.43;;;;;;;15.03;100.00;95924.91;10518591;28;20767;-77
2022/08/16 02:13:05;;;;;;;9.43;8.05;;;;;;;15.00;100.00;95917.41;10518242;28;20209;-77
2022/08/16 02:18:07;;;;;;;11.40;8.40;;;;;;;14.96;100.00;95917.81;10518563;28;20182;-77
2022/08/16 02:23:08;;;;;;;11.10;8.95;;;;;;;14.94;100.00;95913.75;10535995;28;20191;-77
2022/08/16 02:28:09;;;;;;;10.82;9.50;;;;;;;14.98;100.00;95918.41;10535868;28;20210;-77
2022/08/16 02:33:10;;;;;;;10.43;9.30;;;;;;;14.93;100.00;95922.66;10535808;28;20183;-77
2022/08/16 02:38:11;;;;;;;12.73;8.15;;;;;;;14.88;100.00;95920.63;10517193;28;20202;-77
2022/08/16 02:43:12;;;;;;;13.55;9.25;;;;;;;14.87;100.00;95924.31;10517500;28;20182;-78
2022/08/16 02:48:12;;;;;;;10.20;9.20;;;;;;;14.84;100.00;95924.72;10500525;28;20211;-77
2022/08/16 02:53:13;;;;;;;11.40;9.52;;;;;;;14.83;100.00;95927.56;10516586;28;20234;-77
2022/08/16 02:58:13;;;;;;;11.73;8.88;;;;;;;14.85;100.00;95931.59;10517263;28;20561;-77
2022/08/16 03:03:14;;;;;;;16.20;8.98;;;;;;;14.89;100.00;95926.75;10514440;28;20194;-77
2022/08/16 03:08:15;;;;;;;11.25;9.30;;;;;;;14.93;100.00;95930.56;10513934;28;20400;-78
2022/08/16 03:13:18;;;;;;;12.15;9.20;;;;;;;14.94;100.00;95935.66;10512475;28;20217;-77
2022/08/16 03:18:19;;;;;;;10.82;9.50;;;;;;;14.96;100.00;95932.81;10513039;28;20713;-77
2022/08/16 03:23:20;;;;;;;12.23;9.65;;;;;;;14.98;100.00;95930.78;10511364;28;20651;-77
2022/08/16 03:28:20;;;;;;;11.32;9.13;;;;;;;15.14;100.00;95927.75;10511198;28;20219;-77
2022/08/16 03:33:21;;;;;;;12.63;8.80;;;;;;;15.16;100.00;95932.81;10512110;28;20220;-77
2022/08/16 03:38:28;;;;;;;9.57;8.48;;;;;;;14.95;100.00;95945.19;10511302;28;20212;-77
2022/08/16 03:43:30;;;;;;;8.95;8.05;;;;;;;14.95;100.00;95944.41;10511828;28;20249;-77
2022/08/16 03:48:34;;;;;;;11.20;8.27;;;;;;;14.93;100.00;95944.59;10511297;28;20214;-77
2022/08/16 03:53:38;;;;;;;11.52;8.00;;;;;;;14.72;100.00;95953.50;10511607;28;20271;-77
2022/08/16 03:58:38;;;;;;;13.48;8.57;;;;;;;14.78;100.00;95960.59;10511466;28;20174;-77
2022/08/16 04:03:40;;;;;;;10.88;8.50;;;;;;;14.84;100.00;95956.34;10497894;28;20183;-77
2022/08/16 04:08:41;;;;;;;10.40;7.78;;;;;;;14.86;100.00;95967.50;10515349;28;20241;-77
2022/08/16 04:13:41;;;;;;;10.23;8.20;;;;;;;14.89;100.00;95964.47;10533581;28;20590;-77
2022/08/16 04:18:42;;;;;;;10.90;6.43;;;;;;;15.04;100.00;95966.06;10533422;28;20550;-78
2022/08/16 04:23:43;;;;;;;10.82;6.43;;;;;;;15.10;100.00;95979.28;10533391;28;20670;-77
2022/08/16 04:28:44;;;;;;;10.43;6.50;;;;;;;15.19;100.00;95974.63;10514950;28;20294;-77
2022/08/16 04:33:45;;;;;;;12.65;5.88;;;;;;;15.29;100.00;95980.28;10517359;28;20247;-77
2022/08/16 04:38:46;;;;;;;8.52;5.78;;;;;;;15.36;100.00;95980.31;10522264;28;20654;-77
2022/08/16 04:43:47;;;;;;;6.28;5.63;;;;;;;15.33;100.00;95976.22;10522216;28;20280;-77
2022/08/16 04:48:48;;;;;;;10.52;5.60;;;;;;;15.41;100.00;95990.25;10521850;28;20631;-77
2022/08/16 04:53:49;;;;;;;9.50;5.57;;;;;;;15.32;100.00;95995.72;10521476;28;20313;-77
2022/08/16 04:58:50;;;;;;;8.75;6.05;;;;;;;15.26;100.00;96007.09;10521916;28;20720;-77
2022/08/16 05:03:51;;;;;;;13.73;5.82;;;;;;;15.45;100.00;96004.63;10521045;28;20562;-78
2022/08/16 05:08:52;;;;;;;9.77;5.75;;;;;;;15.46;100.00;96016.81;10521265;28;20222;-77
2022/08/16 05:14:00;;;;;;;8.15;5.70;;;;;;;15.53;100.00;96007.06;10521092;28;20187;-77
2022/08/16 05:19:05;;;;;;;7.55;5.53;;;;;;;15.59;100.00;96016.81;10504492;28;20185;-76
2022/08/16 05:24:08;;;;;;;9.85;6.03;;;;;;;15.75;100.00;96015.56;10520372;28;20725;-77
2022/08/16 05:29:09;;;;;;;6.45;5.50;;;;;;;16.01;100.00;96021.84;10503904;28;20219;-77
2022/08/16 05:34:12;;;;;;;9.02;5.20;;;;;;;16.17;100.00;96018.75;10519894;28;20202;-77
2022/08/16 05:39:13;;;;;;;7.88;5.60;;;;;;;16.34;100.00;96012.97;10520272;28;20208;-76
2022/08/16 05:44:15;;;;;;;6.00;5.40;;;;;;;16.64;100.00;96015.88;10520153;28;20194;-76
2022/08/16 05:49:17;;;;;;;9.32;5.20;;;;;;;16.82;100.00;96012.53;10519470;28;20223;-75
2022/08/16 05:54:17;;;;;;;6.53;4.50;;;;;;;17.43;100.00;96016.38;10519615;28;20230;-75
2022/08/16 05:59:18;;;;;;;8.10;4.70;;;;;;;18.16;100.00;96008.75;10519131;28;20179;-76
2022/08/16 06:04:21;;;;;;;6.07;4.10;;;;;;;18.93;100.00;96012.69;10519228;28;20187;-76
2022/08/16 06:09:25;;;;;;;4.25;3.70;;;;;;;19.81;100.00;96000.44;10502437;28;20658;-76
2022/08/16 06:14:27;;;;;;;4.32;3.25;;;;;;;20.34;98.81;95997.78;10518637;28;20187;-75
2022/08/16 06:19:27;;;;;;;5.32;2.83;;;;;;;21.21;90.14;95962.09;10519301;28;20273;-76
2022/08/16 06:24:36;;;;;;;6.53;3.17;;;;;;;20.83;89.11;95979.59;10518559;28;20183;-75
2022/08/16 06:29:36;;;;;;;4.53;3.22;;;;;;;21.98;82.49;95955.22;10518222;28;20726;-75
2022/08/16 06:34:37;;;;;;;3.10;2.80;;;;;;;21.43;83.42;95977.34;10518116;28;20206;-76
2022/08/16 06:39:39;;;;;;;3.92;3.00;;;;;;;22.90;74.86;95926.03;10517986;28;20186;-76
2022/08/16 06:44:42;;;;;;;4.13;3.30;;;;;;;22.93;75.30;95948.78;10518106;28;20192;-77
2022/08/16 06:50:09;;;;;;;6.85;3.38;;;;;;;22.31;76.21;95977.50;10518401;28;20229;-76
2022/08/16 06:55:15;;;;;;;8.23;3.58;;;;;;;22.45;75.48;95977.94;10516544;28;20218;-76
2022/08/16 07:00:23;;;;;;;5.32;3.80;;;;;;;23.31;71.08;95942.41;10517968;28;20194;-76
2022/08/16 07:05:39;;;;;;;3.50;3.20;;;;;;;24.46;65.45;95889.16;10535720;28;20225;-77
2022/08/16 07:10:48;;;;;;;5.70;3.03;;;;;;;23.98;66.12;95921.44;10517011;28;20210;-76
2022/08/16 07:15:50;;;;;;;3.55;3.15;;;;;;;23.77;67.18;95935.75;10516823;28;20231;-76
2022/08/16 07:20:52;;;;;;;8.85;3.38;;;;;;;23.34;68.86;95970.50;10500171;28;20241;-76
2022/08/16 07:25:54;;;;;;;3.92;3.05;;;;;;;24.16;65.56;95935.41;10516808;28;20218;-77
2022/08/16 07:30:55;;;;;;;4.53;2.90;;;;;;;26.34;59.28;95887.53;10516631;28;20243;-77
2022/08/16 07:36:08;;;;;;;13.13;3.60;;;;;;;24.25;63.47;95922.31;10517082;28;20226;-76
2022/08/16 07:41:13;;;;;;;6.45;3.50;;;;;;;25.37;61.03;95910.13;10516486;28;20248;-76
2022/08/16 07:46:18;;;;;;;4.05;2.72;;;;;;;27.43;56.17;95876.75;10516010;28;20215;-77
2022/08/16 07:51:19;;;;;;;7.18;2.97;;;;;;;27.70;54.80;95852.78;10516105;28;20175;-77
2022/08/16 07:56:19;;;;;;;8.23;2.90;;;;;;;28.05;53.12;95836.47;10516426;28;20585;-77
2022/08/16 08:01:22;;;;;;;3.85;2.80;;;;;;;27.98;53.52;95852.19;10516314;28;20182;-76
2022/08/16 08:06:27;;;;;;;3.38;3.05;;;;;;;26.70;55.79;95893.47;10517098;28;20296;-76
2022/08/16 08:11:31;;;;;;;4.30;2.45;;;;;;;28.13;53.10;95875.41;10507443;28;20187;-77
2022/08/16 08:16:34;;;;;;;4.45;2.83;;;;;;;29.89;47.79;95820.97;10542397;28;20187;-76
2022/08/16 08:21:35;;;;;;;6.88;3.40;;;;;;;27.94;54.27;95895.81;10523761;28;20245;-77
2022/08/16 08:26:36;;;;;;;3.08;2.78;;;;;;;28.71;50.95;95858.16;10506886;28;20288;-77
2022/08/16 08:31:37;;;;;;;3.40;2.55;;;;;;;28.75;51.59;95880.75;10523448;28;20190;-75
2022/08/16 08:36:39;;;;;;;4.22;2.95;;;;;;;30.30;46.73;95814.66;10522669;28;20234;-76
2022/08/16 08:41:51;;;;;;;3.55;2.67;;;;;;;29.49;49.06;95851.16;10507882;28;20194;-76
2022/08/16 08:46:56;;;;;;;4.53;2.80;;;;;;;29.91;49.76;95880.09;10522970;28;20678;-76
2022/08/16 08:51:58;;;;;;;2.80;2.50;;;;;;;30.88;46.19;95834.66;10522604;28;20630;-77
2022/08/16 08:56:59;;;;;;;4.40;2.30;;;;;;;29.02;50.84;95869.28;10521574;28;20223;-76
2022/08/16 09:02:22;;;;;;;5.45;2.35;;;;;;;31.19;44.55;95817.66;10522501;28;20285;-77
2022/08/16 09:07:26;;;;;;;4.30;2.70;;;;;;;31.07;45.26;95823.69;10521381;28;20225;-77
2022/08/16 09:12:30;;;;;;;5.78;2.50;;;;;;;30.90;44.65;95801.91;10522403;28;20186;-76
2022/08/16 09:17:36;;;;;;;2.72;2.50;;;;;;;26.97;50.86;95822.31;10522180;28;20186;-75
2022/08/16 09:22:37;;;;;;;3.83;2.67;;;;;;;27.91;49.29;95818.31;10521209;28;20264;-76
2022/08/16 09:27:39;;;;;;;4.22;2.40;;;;;;;28.79;47.61;95806.28;10527279;28;20222;-75
2022/08/16 09:32:39;;;;;;;3.72;2.33;;;;;;;29.96;44.86;95783.56;10541169;28;20190;-76
2022/08/16 09:37:40;;;;;;;3.67;2.50;;;;;;;32.61;39.95;95753.38;10538524;28;20298;-76
2022/08/16 09:42:42;;;;;;;3.83;2.50;;;;;;;32.65;40.29;95750.84;10537795;28;20548;-76
2022/08/16 09:47:42;;;;;;;3.45;2.15;;;;;;;31.19;42.16;95747.31;10519697;28;20218;-76
2022/08/16 09:52:43;;;;;;;5.97;2.22;;;;;;;31.71;41.13;95735.06;10537362;28;20217;-76
2022/08/16 09:57:43;;;;;;;4.53;2.17;;;;;;;29.00;44.43;95709.66;10529511;28;20195;-76
2022/08/16 10:02:44;;;;;;;8.13;2.28;;;;;;;28.76;44.79;95716.03;10495485;28;20278;-76
2022/08/16 10:07:46;;;;;;;3.45;2.33;;;;;;;28.79;45.25;95734.31;10495940;28;20238;-77
2022/08/16 10:18:08;;;;;;;3.45;2.20;;;;;;;29.68;44.12;95740.41;10494831;28;20215;-77
2022/08/16 10:23:12;;;;;;;2.40;2.20;;;;;;;29.60;42.04;95683.63;10476778;28;20187;-77
2022/08/16 10:28:13;;;;;;;5.60;2.97;;;;;;;28.23;43.29;95666.00;10459947;28;20219;-76
2022/08/16 10:33:14;;;;;;;4.10;2.40;;;;;;;27.98;44.64;95679.88;10494078;28;20213;-76
2022/08/16 10:38:15;;;;;;;3.50;2.40;;;;;;;27.91;44.53;95694.47;10494101;28;20361;-76
2022/08/16 10:43:16;;;;;;;3.92;2.20;;;;;;;28.26;44.68;95723.88;10493690;28;20195;-76
2022/08/16 10:48:16;;;;;;;4.68;2.30;;;;;;;30.37;41.78;95733.19;10494043;28;20725;-76
2022/08/16 10:53:17;;;;;;;3.75;2.30;;;;;;;32.50;38.81;95727.72;10492756;28;20321;-76
2022/08/16 10:58:17;;;;;;;2.03;1.83;;;;;;;33.97;36.08;95699.41;10493172;28;20192;-77
2022/08/16 11:03:18;;;;;;;3.63;2.30;;;;;;;31.08;41.48;95729.78;10492673;28;20813;-76
2022/08/16 11:08:20;;;;;;;3.75;2.17;;;;;;;29.81;42.18;95694.78;10492444;28;20572;-76
2022/08/16 11:13:24;;;;;;;4.13;2.05;;;;;;;32.59;39.52;95752.91;10492755;28;20183;-76
2022/08/16 11:18:27;;;;;;;6.63;2.25;;;;;;;32.41;39.68;95732.38;10492381;28;20191;-76
2022/08/16 11:23:28;;;;;;;2.85;2.28;;;;;;;31.97;39.16;95691.72;10492630;28;20191;-75
2022/08/16 11:28:28;;;;;;;3.17;2.10;;;;;;;31.64;42.05;95746.38;10492167;28;20231;-75
2022/08/16 11:33:28;;;;;;;3.10;2.10;;;;;;;31.21;42.18;95752.41;10491468;28;20202;-76
2022/08/16 11:38:29;;;;;;;3.13;1.93;;;;;;;33.15;38.68;95733.13;10491259;28;20528;-76
2022/08/16 11:43:32;;;;;;;2.63;2.03;;;;;;;32.89;38.07;95693.31;10495578;28;20443;-76
2022/08/16 11:48:33;;;;;;;4.13;2.38;;;;;;;31.97;39.04;95694.44;10500021;28;20219;-75
2022/08/16 11:53:34;;;;;;;3.80;2.33;;;;;;;31.14;43.12;95782.66;10499642;28;20328;-75
2022/08/16 11:58:34;;;;;;;5.80;2.20;;;;;;;31.25;39.91;95691.94;10499751;28;20197;-75
2022/08/16 12:03:35;;;;;;;4.78;2.22;;;;;;;30.75;42.93;95762.53;10499361;28;20469;-76
2022/08/16 12:08:35;;;;;;;3.05;2.10;;;;;;;30.70;42.25;95738.34;10499209;28;20222;-76
2022/08/16 12:13:36;;;;;;;5.05;2.53;;;;;;;32.17;39.53;95717.41;10499279;28;20651;-76
2022/08/16 12:18:38;;;;;;;2.40;2.00;;;;;;;32.72;38.73;95722.09;10498458;28;20234;-76
2022/08/16 12:23:39;;;;;;;4.25;2.17;;;;;;;31.49;42.44;95750.28;10498883;28;20191;-76
2022/08/16 12:28:39;;;;;;;7.25;2.58;;;;;;;31.02;41.10;95699.34;10498391;28;20625;-76
2022/08/16 12:33:42;;;;;;;2.40;2.13;;;;;;;31.88;39.31;95691.72;10498074;28;20641;-76
2022/08/16 12:38:42;;;;;;;5.57;2.55;;;;;;;31.80;40.95;95733.16;10497814;28;20495;-76
2022/08/16 12:43:43;;;;;;;3.40;2.60;;;;;;;32.03;38.04;95655.22;10498352;28;20191;-75
2022/08/16 12:48:58;;;;;;;2.73;2.30;;;;;;;31.51;38.66;95660.63;10479896;28;20250;-75
2022/08/16 12:54:00;;;;;;;3.13;2.70;;;;;;;31.84;38.61;95669.13;10495835;28;20472;-75
2022/08/16 12:59:07;;;;;;;4.00;2.55;;;;;;;32.42;37.97;95685.16;10497826;28;20225;-75
2022/08/16 13:04:08;;;;;;;3.08;2.20;;;;;;;33.18;36.43;95653.75;10497469;28;20195;-75
2022/08/16 13:09:19;;;;;;;3.65;2.60;;;;;;;32.94;36.85;95652.47;10462848;28;20215;-75
2022/08/16 13:14:19;;;;;;;4.47;2.75;;;;;;;32.91;37.57;95663.94;10481096;28;20553;-75
2022/08/16 13:19:20;;;;;;;5.33;2.77;;;;;;;31.12;39.77;95644.97;10496585;28;20191;-75
2022/08/16 13:24:20;;;;;;;5.05;2.03;;;;;;;32.00;39.78;95682.97;10496161;28;20477;-75
2022/08/16 13:29:20;;;;;;;6.67;2.60;;;;;;;31.85;40.51;95708.63;10496539;28;20245;-75
2022/08/16 13:34:21;;;;;;;5.70;2.90;;;;;;;30.26;42.96;95712.91;10496268;28;20458;-75
2022/08/16 13:39:21;;;;;;;2.40;2.20;;;;;;;30.78;41.73;95699.72;10496031;28;20455;-75
2022/08/16 13:44:21;;;;;;;5.07;2.45;;;;;;;30.28;42.85;95713.41;10496059;28;20433;-75
2022/08/16 13:49:22;;;;;;;4.82;2.58;;;;;;;30.70;42.74;95741.03;10495534;28;20219;-74
2022/08/16 13:54:22;;;;;;;6.55;2.60;;;;;;;31.19;39.98;95676.19;10495583;28;20320;-75
2022/08/16 13:59:23;;;;;;;3.57;2.40;;;;;;;31.12;40.35;95672.03;10495256;28;20191;-75
2022/08/16 14:04:28;;;;;;;2.53;2.13;;;;;;;31.33;40.01;95681.47;10477544;28;20503;-75
2022/08/16 14:09:29;;;;;;;4.18;2.33;;;;;;;31.21;38.63;95636.06;10494615;28;20563;-75
2022/08/16 14:14:30;;;;;;;2.85;2.60;;;;;;;30.81;39.92;95649.63;10495025;28;20195;-75
2022/08/16 14:19:31;;;;;;;13.20;2.53;;;;;;;31.37;40.13;95674.31;10494512;28;20179;-75
2022/08/16 14:24:32;;;;;;;3.33;2.22;;;;;;;31.16;40.59;95693.84;10476516;28;20195;-75
2022/08/16 14:29:33;;;;;;;9.13;2.38;;;;;;;30.53;41.52;95687.69;10494060;28;20245;-74
2022/08/16 14:34:33;;;;;;;4.07;2.40;;;;;;;30.59;40.90;95664.81;10494008;28;20229;-75
2022/08/16 14:39:34;;;;;;;4.00;2.40;;;;;;;30.79;41.45;95700.53;10493802;28;20193;-74
2022/08/16 14:44:35;;;;;;;2.53;2.10;;;;;;;30.53;41.84;95677.66;10493674;28;20184;-75
2022/08/16 14:49:35;;;;;;;3.60;2.30;;;;;;;30.58;39.91;95634.28;10493711;28;20223;-74
2022/08/16 14:54:37;;;;;;;6.85;2.40;;;;;;;31.00;40.13;95668.34;10475650;28;20235;-75
2022/08/16 14:59:38;;;;;;;4.57;2.30;;;;;;;30.86;40.90;95682.75;10475426;28;20187;-74
2022/08/16 15:04:38;;;;;;;6.13;2.25;;;;;;;30.26;42.05;95694.00;10493191;28;20670;-75
2022/08/16 15:09:40;;;;;;;3.90;2.27;;;;;;;29.98;45.29;95759.72;10492729;28;20211;-75
2022/08/16 15:14:40;;;;;;;4.50;2.45;;;;;;;30.51;41.26;95682.56;10492758;28;20441;-75
2022/08/16 15:19:42;;;;;;;2.50;2.28;;;;;;;30.16;43.48;95732.88;10492270;28;20278;-75
2022/08/16 15:24:42;;;;;;;6.47;2.88;;;;;;;29.80;42.86;95701.25;10492860;28;20195;-75
2022/08/16 15:29:43;;;;;;;4.83;2.60;;;;;;;28.88;46.08;95752.47;10474352;28;20223;-75
2022/08/16 15:34:44;;;;;;;11.23;2.65;;;;;;;28.96;47.13;95790.34;10492452;28;20549;-75
2022/08/16 15:39:44;;;;;;;5.57;2.70;;;;;;;29.31;45.29;95761.13;10457918;28;20187;-75
2022/08/16 15:44:45;;;;;;;5.35;2.13;;;;;;;29.34;46.50;95798.31;10492618;28;20523;-75
2022/08/16 15:49:47;;;;;;;9.93;2.83;;;;;;;29.03;48.29;95833.09;10473811;28;20297;-75
2022/08/16 15:54:48;;;;;;;3.00;2.40;;;;;;;29.15;46.75;95792.97;10491863;28;20466;-75
2022/08/16 15:59:48;;;;;;;4.18;2.40;;;;;;;28.61;47.58;95806.03;10491327;28;20187;-74
2022/08/16 16:04:49;;;;;;;4.15;2.35;;;;;;;28.63;46.55;95792.25;10491845;28;20184;-74
2022/08/16 16:09:49;;;;;;;4.30;2.53;;;;;;;28.58;46.13;95776.94;10491608;28;20223;-74
2022/08/16 16:14:49;;;;;;;4.87;2.73;;;;;;;28.21;47.61;95797.47;10491035;28;20548;-75
2022/08/16 16:19:50;;;;;;;4.93;2.50;;;;;;;28.09;47.11;95795.22;10491557;28;20923;-75
2022/08/16 16:24:51;;;;;;;15.82;9.40;;;;;;;29.02;46.37;95820.72;10537274;28;20829;-75
2022/08/16 16:29:51;;;;;;;5.88;2.60;;;;;;;30.39;42.55;95775.03;10542398;28;20305;-75
2022/08/16 16:34:52;;;;;;;3.40;2.40;;;;;;;29.38;44.78;95778.81;10521886;28;20234;-75
2022/08/16 16:39:52;;;;;;;3.50;2.70;;;;;;;28.92;45.59;95769.66;10540214;28;20183;-74
2022/08/16 16:44:52;;;;;;;3.53;2.70;;;;;;;28.69;46.43;95795.69;10540616;28;20560;-74
2022/08/16 16:49:53;;;;;;;4.70;2.20;;;;;;;28.92;46.05;95804.72;10539819;28;20480;-74
2022/08/16 16:54:53;;;;;;;4.97;2.60;;;;;;;28.77;47.61;95840.81;10539453;28;20470;-74
2022/08/16 16:59:55;;;;;;;3.47;2.38;;;;;;;28.98;47.21;95838.59;10539533;28;20535;-74
2022/08/16 17:04:55;;;;;;;6.18;2.30;;;;;;;29.14;46.88;95839.09;10539305;28;20197;-74
2022/08/16 17:09:55;;;;;;;3.93;2.30;;;;;;;28.67;48.37;95851.75;10539017;28;20682;-75
2022/08/16 17:14:56;;;;;;;11.53;2.73;;;;;;;28.00;49.46;95848.13;10539065;28;21038;-75
2022/08/16 17:19:56;;;;;;;6.10;2.30;;;;;;;27.86;49.88;95874.91;10539012;28;20928;-75
2022/08/16 17:24:57;;;;;;;3.93;2.40;;;;;;;27.63;51.08;95891.84;10536279;28;20199;-75
2022/08/16 17:29:57;;;;;;;3.33;2.57;;;;;;;27.27;51.67;95901.06;10519490;28;20476;-75
2022/08/16 17:34:59;;;;;;;4.77;2.63;;;;;;;27.01;51.87;95895.13;10522069;28;20568;-76
2022/08/16 17:40:00;;;;;;;5.70;2.40;;;;;;;26.37;54.80;95950.59;10495353;28;21210;-76
2022/08/16 17:45:01;;;;;;;5.38;2.95;;;;;;;25.69;59.04;96019.75;10495584;28;20191;-76
2022/08/16 17:50:05;;;;;;;6.63;4.55;;;;;;;25.18;61.25;96055.41;10495714;28;20288;-76
2022/08/16 17:55:11;;;;;;;8.68;4.50;;;;;;;23.71;65.99;96090.03;10494779;28;20254;-76
2022/08/16 18:00:13;;;;;;;5.00;3.03;;;;;;;23.06;68.57;96097.13;10495159;28;20306;-76
2022/08/16 18:05:15;;;;;;;8.88;3.55;;;;;;;21.99;73.90;96105.38;10460924;28;20207;-78
2022/08/16 18:10:16;;;;;;;9.68;3.15;;;;;;;21.52;76.87;96090.53;10494949;28;20623;-77
2022/08/16 18:15:17;;;;;;;11.77;5.40;;;;;;;21.67;76.53;96087.28;10494425;28;20188;-77
2022/08/16 18:25:50;;;;;;;6.43;3.38;;;;;;;21.20;80.67;96109.66;10494164;28;20223;-77
2022/08/16 18:30:51;;;;;;;8.13;3.53;;;;;;;20.93;83.55;96120.06;10494540;28;20226;-78
2022/08/16 18:35:52;;;;;;;5.47;3.63;;;;;;;20.92;84.98;96129.91;10476780;28;20215;-77
2022/08/16 18:40:53;;;;;;;7.30;3.80;;;;;;;20.81;86.78;96133.41;10493955;28;20183;-78
2022/08/16 18:45:54;;;;;;;7.90;3.88;;;;;;;20.71;87.04;96136.69;10495419;28;20710;-79
2022/08/16 18:50:56;;;;;;;8.25;3.72;;;;;;;20.55;88.18;96137.38;10477475;28;20191;-76
2022/08/16 18:55:58;;;;;;;4.85;3.70;;;;;;;20.52;89.12;96140.50;10492671;28;20243;-79
2022/08/16 19:00:59;;;;;;;4.40;3.92;;;;;;;20.30;90.18;96143.75;10494103;28;20268;-77
2022/08/16 19:06:02;;;;;;;8.20;4.35;;;;;;;20.07;91.97;96147.25;10494424;28;20249;-76
2022/08/16 19:11:05;;;;;;;8.25;4.40;;;;;;;20.07;91.91;96149.91;10494646;28;20194;-76
2022/08/16 19:16:05;;;;;;;8.32;4.43;;;;;;;20.04;91.43;96153.00;10495087;28;20249;-75
2022/08/16 19:21:07;;;;;;;5.93;4.15;;;;;;;19.98;91.65;96156.59;10494979;28;20219;-75
2022/08/16 19:26:11;;;;;;;6.70;4.18;;;;;;;19.79;93.34;96172.63;10476029;28;20222;-75
2022/08/16 19:31:22;;;;;;;9.15;4.72;;;;;;;19.68;94.24;96173.38;10493674;28;20199;-74
2022/08/16 19:36:29;;;;;;;8.13;4.60;;;;;;;19.55;94.43;96177.84;10492692;28;20207;-76
2022/08/16 19:41:29;;;;;;;6.35;4.43;;;;;;;19.53;94.90;96187.91;10493451;28;20183;-76
2022/08/16 19:46:30;;;;;;;14.85;4.88;;;;;;;19.54;93.81;96194.00;10492541;28;20250;-76
2022/08/16 19:51:31;;;;;;;8.57;4.28;;;;;;;19.48;94.53;96205.53;10492833;28;20183;-75
2022/08/16 19:56:31;;;;;;;7.40;4.53;;;;;;;19.36;95.33;96208.97;10493474;28;20341;-76
2022/08/16 20:01:33;;;;;;;6.50;4.38;;;;;;;19.31;95.67;96210.69;10493261;28;20277;-76
2022/08/16 20:06:33;;;;;;;6.78;4.47;;;;;;;19.27;95.36;96212.19;10502182;28;20709;-75
2022/08/16 20:11:34;;;;;;;11.32;4.35;;;;;;;19.33;94.32;96208.63;10517140;28;20172;-75
2022/08/16 20:16:34;;;;;;;4.43;4.03;;;;;;;19.30;94.68;96214.38;10525721;28;20195;-75
2022/08/16 20:21:35;;;;;;;5.15;4.05;;;;;;;19.30;94.72;96222.34;10501496;28;20187;-75
2022/08/16 20:26:35;;;;;;;10.00;4.35;;;;;;;19.28;94.31;96211.13;10499571;28;20252;-76
2022/08/16 20:31:35;;;;;;;5.80;4.40;;;;;;;19.21;94.84;96221.84;10500298;28;20195;-76
2022/08/16 20:36:36;;;;;;;5.07;4.40;;;;;;;19.16;95.78;96222.50;10498689;28;20253;-76
2022/08/16 20:41:36;;;;;;;8.30;3.97;;;;;;;19.17;95.16;96215.34;10499049;28;20191;-76
2022/08/16 20:46:37;;;;;;;6.40;4.45;;;;;;;19.06;96.06;96211.59;10498752;28;20211;-76
2022/08/16 20:51:38;;;;;;;9.10;4.10;;;;;;;19.06;95.20;96208.94;10497960;28;20195;-77
2022/08/16 20:56:38;;;;;;;5.30;4.38;;;;;;;19.03;95.80;96215.50;10497978;28;20657;-75
2022/08/16 21:01:38;;;;;;;6.57;4.20;;;;;;;19.05;96.27;96212.63;10498302;28;20194;-75
2022/08/16 21:06:39;;;;;;;5.45;4.60;;;;;;;19.00;96.90;96207.19;10480034;28;20229;-75
2022/08/16 21:11:40;;;;;;;8.13;4.85;;;;;;;18.91;97.61;96208.50;10463795;28;20225;-76
2022/08/16 21:16:40;;;;;;;4.97;4.45;;;;;;;18.85;98.40;96208.38;10496756;28;20651;-75
2022/08/16 21:21:41;;;;;;;5.38;4.60;;;;;;;18.77;99.10;96215.78;10497462;28;20858;-76
2022/08/16 21:26:41;;;;;;;4.68;4.28;;;;;;;18.73;99.46;96207.47;10497185;28;20218;-75
2022/08/16 21:31:41;;;;;;;4.78;4.30;;;;;;;18.68;99.71;96216.09;10497195;28;20635;-75
2022/08/16 21:36:42;;;;;;;7.07;4.30;;;;;;;18.57;100.00;96221.28;10496798;28;20547;-76
2022/08/16 21:41:42;;;;;;;9.35;4.93;;;;;;;18.42;100.00;96217.13;10496182;28;20229;-76
2022/08/16 21:46:42;;;;;;;5.53;4.72;;;;;;;18.35;100.00;96216.41;10496321;28;20219;-76
2022/08/16 21:51:43;;;;;;;7.78;4.97;;;;;;;18.27;100.00;96211.34;10496477;28;20195;-76
2022/08/16 21:56:43;;;;;;;8.35;5.10;;;;;;;18.10;100.00;96219.03;10495491;28;20223;-76
2022/08/16 22:01:43;;;;;;;8.10;4.85;;;;;;;18.05;100.00;96217.03;10496123;28;20199;-76
2022/08/16 22:06:44;;;;;;;10.90;4.85;;;;;;;18.03;100.00;96221.75;10494916;28;20261;-75
2022/08/16 22:11:44;;;;;;;8.35;4.45;;;;;;;18.01;100.00;96221.16;10495841;28;20207;-74
2022/08/16 22:16:45;;;;;;;6.35;5.43;;;;;;;17.95;100.00;96224.69;10495353;28;20183;-76
2022/08/16 22:21:46;;;;;;;7.72;4.78;;;;;;;17.89;100.00;96230.84;10495523;28;20217;-76
2022/08/16 22:26:46;;;;;;;7.70;4.85;;;;;;;17.89;100.00;96225.53;10495217;28;20239;-73
2022/08/16 22:31:47;;;;;;;6.90;4.35;;;;;;;17.80;100.00;96233.69;10477196;28;20199;-74
2022/08/16 22:36:49;;;;;;;5.97;4.47;;;;;;;17.91;100.00;96234.06;10494232;28;20206;-75
2022/08/16 22:41:50;;;;;;;5.10;4.60;;;;;;;17.88;100.00;96237.13;10494675;28;20199;-76
2022/08/16 22:46:51;;;;;;;6.50;4.80;;;;;;;17.82;100.00;96250.22;10494681;28;20691;-76
2022/08/16 22:51:51;;;;;;;9.23;5.10;;;;;;;17.85;100.00;96243.66;10494572;28;20294;-76
2022/08/16 22:56:51;;;;;;;4.85;4.35;;;;;;;17.88;100.00;96224.69;10494125;28;20223;-76
2022/08/16 23:01:52;;;;;;;5.93;4.43;;;;;;;17.79;100.00;96232.09;10495226;28;20211;-75
2022/08/16 23:06:52;;;;;;;4.70;4.28;;;;;;;17.65;100.00;96231.34;10495783;28;20215;-74
2022/08/16 23:11:53;;;;;;;6.05;4.63;;;;;;;17.56;100.00;96231.81;10494241;28;20190;-75
2022/08/16 23:16:53;;;;;;;7.65;4.90;;;;;;;17.50;100.00;96233.47;10493976;28;20218;-74
2022/08/16 23:21:53;;;;;;;7.38;5.05;;;;;;;17.42;100.00;96229.22;10493914;28;20723;-75
2022/08/16 23:26:54;;;;;;;6.78;5.15;;;;;;;17.43;100.00;96228.22;10494167;28;20706;-74